Time;durP1;ratioP1;P1;durP2;ratioP2;P2;SDS_P1;SDS_P2;PMS_P1;PMS_P2;Temp;Humidity;BMP_temperature;BMP_pressure;BME280_temperature;BME280_humidity;BME280_pressure;Samples;Min_cycle;Max_cycle;Signal;HPM_P1;HPM_P2
2022/09/12 00:00:34;;;;;;;21.88;17.23;;;;;;;-148.88;99.14;75748.78;5013135;28;20070;-86
2022/09/12 00:03:11;;;;;;;23.65;17.98;;;;;;;-148.88;99.72;75748.78;5013317;28;20054;-85
2022/09/12 00:05:50;;;;;;;23.13;18.55;;;;;;;-148.88;100.00;75748.78;5013323;28;20030;-86
2022/09/12 00:08:24;;;;;;;24.58;18.48;;;;;;;-148.88;100.00;75748.78;5013638;28;20037;-85
2022/09/12 00:10:53;;;;;;;23.90;18.02;;;;;;;-148.88;100.00;75744.72;5013064;28;20468;-85
2022/09/12 00:13:21;;;;;;;22.80;18.40;;;;;;;-148.88;100.00;75748.78;5013369;28;20062;-85
2022/09/12 00:15:47;;;;;;;22.65;18.23;;;;;;;-148.88;99.92;75765.03;5013063;28;20026;-85
2022/09/12 00:18:16;;;;;;;23.67;18.83;;;;;;;-148.88;100.00;75760.97;5014069;28;20025;-85
2022/09/12 00:20:48;;;;;;;25.80;18.58;;;;;;;-148.88;99.93;75763.00;5011114;28;20034;-85
2022/09/12 00:23:22;;;;;;;23.90;19.40;;;;;;;-148.88;99.92;75769.09;5013436;28;20436;-86
2022/09/12 00:26:00;;;;;;;26.67;20.05;;;;;;;-148.88;100.00;75769.09;5012905;28;20439;-86
2022/09/12 00:28:33;;;;;;;24.88;19.88;;;;;;;-148.88;100.00;75777.22;5013418;28;20121;-85
2022/09/12 00:31:02;;;;;;;28.10;20.83;;;;;;;-148.88;100.00;75771.13;5013145;28;20048;-85
2022/09/12 00:33:40;;;;;;;27.20;21.13;;;;;;;-148.88;100.00;75760.97;5012510;28;20069;-86
2022/09/12 00:36:10;;;;;;;27.60;21.00;;;;;;;-148.88;100.00;75769.09;5013305;28;20388;-85
2022/09/12 00:38:50;;;;;;;26.48;20.55;;;;;;;-148.88;100.00;75760.97;5013764;28;20025;-85
2022/09/12 00:41:40;;;;;;;28.33;20.42;;;;;;;-148.88;100.00;75773.16;5013981;28;20025;-85
2022/09/12 00:44:46;;;;;;;25.67;20.33;;;;;;;-148.88;100.00;75769.09;5013017;28;20033;-86
2022/09/12 00:47:29;;;;;;;26.38;20.52;;;;;;;-148.88;100.00;75765.03;5014833;28;20022;-85
2022/09/12 00:50:13;;;;;;;26.90;20.87;;;;;;;-148.88;100.00;75781.28;5013775;28;20385;-85
2022/09/12 00:53:12;;;;;;;31.65;21.83;;;;;;;-148.88;100.00;75775.19;5014288;28;20805;-85
2022/09/12 00:55:49;;;;;;;26.88;21.75;;;;;;;-148.88;100.00;75773.16;5011774;28;20550;-85
2022/09/12 00:58:44;;;;;;;27.48;20.73;;;;;;;-148.88;100.00;75769.09;5012394;28;20034;-86
2022/09/12 01:01:24;;;;;;;26.10;21.85;;;;;;;-148.88;100.00;75777.22;5013018;28;20030;-85
2022/09/12 01:03:52;;;;;;;29.48;21.70;;;;;;;-148.88;100.00;75785.34;5012831;28;20480;-85
2022/09/12 01:06:34;;;;;;;29.80;21.65;;;;;;;-148.88;100.00;75781.28;5013272;28;20078;-85
2022/09/12 01:09:14;;;;;;;28.92;21.95;;;;;;;-148.88;100.00;75781.28;5012087;28;20503;-85
2022/09/12 01:12:23;;;;;;;25.30;20.42;;;;;;;-148.88;100.00;75781.28;5012158;28;20030;-85
2022/09/12 01:14:36;;;;;;;27.30;20.70;;;;;;;-148.88;100.00;75791.44;5012894;28;20051;-85
2022/09/12 01:17:13;;;;;;;24.83;20.15;;;;;;;-148.88;100.00;75791.44;5012577;28;20499;-85
2022/09/12 01:19:58;;;;;;;26.77;20.15;;;;;;;-148.88;100.00;75797.53;5011878;28;20113;-85
2022/09/12 01:23:19;;;;;;;25.75;20.85;;;;;;;-148.88;100.00;75801.59;5013700;28;20025;-84
2022/09/12 01:26:19;;;;;;;26.55;22.15;;;;;;;-148.88;100.00;75797.53;4982928;28;20032;-84
2022/09/12 01:28:44;;;;;;;29.40;21.08;;;;;;;-148.88;100.00;75817.84;5015710;28;20041;-85
2022/09/12 01:31:35;;;;;;;29.58;22.00;;;;;;;-148.88;100.00;75813.78;5016301;28;20029;-85
2022/09/12 01:34:25;;;;;;;23.60;19.33;;;;;;;-148.88;100.00;75882.84;5016436;28;20022;-85
2022/09/12 01:37:38;;;;;;;;;;;;;;;;;;;;;
2022/09/12 01:40:28;;;;;;;24.63;19.55;;;;;;;-148.88;100.00;75868.63;5017275;28;20022;-86
2022/09/12 01:43:17;;;;;;;25.60;19.13;;;;;;;-148.88;100.00;75870.66;5015875;28;20403;-86
2022/09/12 01:46:21;;;;;;;28.90;20.38;;;;;;;-148.88;100.00;75858.47;5016741;28;20038;-85
2022/09/12 01:49:01;;;;;;;26.80;20.17;;;;;;;-148.88;100.00;75854.41;5015598;28;20470;-85
2022/09/12 01:51:57;;;;;;;27.05;20.58;;;;;;;-148.88;100.00;75846.28;5016185;28;20419;-85
2022/09/12 01:54:52;;;;;;;27.67;20.50;;;;;;;-148.88;100.00;75834.09;5015388;28;20032;-86
2022/09/12 01:57:45;;;;;;;27.48;21.30;;;;;;;-148.88;100.00;75838.16;5015542;28;20029;-85
2022/09/12 02:00:20;;;;;;;30.23;22.15;;;;;;;-148.88;100.00;75838.16;5015554;28;20057;-85
2022/09/12 02:02:59;;;;;;;26.85;21.42;;;;;;;-148.88;100.00;75834.09;5016085;28;20073;-85
2022/09/12 02:06:20;;;;;;;25.75;21.02;;;;;;;-148.88;100.00;75830.03;5016660;28;20037;-85
2022/09/12 02:09:24;;;;;;;28.00;20.20;;;;;;;-148.88;100.00;75832.06;5014899;28;20044;-85
2022/09/12 02:12:02;;;;;;;26.20;20.70;;;;;;;-148.88;100.00;75830.03;5003678;28;20038;-85
2022/09/12 02:15:07;;;;;;;27.00;20.30;;;;;;;-148.88;100.00;75825.97;5016913;28;20029;-85
2022/09/12 02:17:53;;;;;;;28.13;20.95;;;;;;;-148.88;100.00;75828.00;5014892;28;20072;-85
2022/09/12 02:20:38;;;;;;;26.70;20.70;;;;;;;-148.88;100.00;75832.06;5015866;28;20423;-85
2022/09/12 02:23:36;;;;;;;26.67;20.63;;;;;;;-148.88;100.00;75834.09;5014993;28;20546;-85
2022/09/12 02:26:52;;;;;;;26.58;20.60;;;;;;;-148.88;100.00;75840.19;5016812;28;20071;-85
2022/09/12 02:29:47;;;;;;;28.77;20.73;;;;;;;-148.88;100.00;75854.41;4996999;28;20121;-84
2022/09/12 02:32:26;;;;;;;;;;;;;;;-148.88;100.00;75858.47;5015899;28;20037;-86
2022/09/12 02:35:06;;;;;;;25.00;20.38;;;;;;;-148.88;100.00;75862.53;5016065;28;19910;-85
2022/09/12 02:37:47;;;;;;;29.38;21.98;;;;;;;-148.88;100.00;75882.84;5014983;28;20025;-85
2022/09/12 02:40:38;;;;;;;29.45;22.98;;;;;;;-148.88;100.00;75895.03;5014210;28;20034;-85
2022/09/12 02:43:18;;;;;;;29.48;22.80;;;;;;;-148.88;100.00;75907.22;5015278;28;20037;-85
2022/09/12 02:45:47;;;;;;;29.13;22.60;;;;;;;-148.88;100.00;75890.97;5015794;28;20030;-85
2022/09/12 02:48:31;;;;;;;30.33;22.55;;;;;;;-148.88;100.00;75886.91;5013775;28;20033;-85
2022/09/12 02:51:03;;;;;;;27.55;21.58;;;;;;;-148.88;100.00;75886.91;5015128;28;20236;-86
2022/09/12 02:53:57;;;;;;;;;;;;;;;;;;;;;
2022/09/12 02:56:44;;;;;;;31.95;22.33;;;;;;;-148.88;100.00;75878.78;5015362;28;20036;-86
2022/09/12 02:59:33;;;;;;;30.10;23.38;;;;;;;-148.88;100.00;75874.72;5013752;28;20129;-86
2022/09/12 03:02:20;;;;;;;29.30;22.08;;;;;;;-148.88;100.00;75878.78;5005274;28;20034;-87
2022/09/12 03:05:13;;;;;;;29.50;23.25;;;;;;;-148.88;100.00;75872.69;5014674;28;20030;-86
2022/09/12 03:08:29;;;;;;;28.02;22.48;;;;;;;-148.88;100.00;75870.66;5015659;28;20018;-87
2022/09/12 03:11:04;;;;;;;30.35;22.45;;;;;;;-148.88;100.00;75882.84;5018247;22;20078;-76
2022/09/12 03:13:48;;;;;;;30.40;24.02;;;;;;;-148.88;100.00;75890.97;5014361;28;20029;-76
2022/09/12 03:16:45;;;;;;;31.73;24.05;;;;;;;-148.88;100.00;75895.03;5014486;28;20064;-76
2022/09/12 03:19:32;;;;;;;31.45;24.45;;;;;;;-148.88;100.00;75890.97;5014396;28;20042;-76
2022/09/12 03:22:18;;;;;;;30.50;22.80;;;;;;;-148.88;100.00;75899.09;5014277;28;20053;-76
2022/09/12 03:25:02;;;;;;;29.90;22.80;;;;;;;-148.88;100.00;75897.06;5013019;28;20030;-76
2022/09/12 03:27:34;;;;;;;27.42;22.35;;;;;;;-148.88;100.00;75893.00;5014376;28;20025;-76
2022/09/12 03:29:59;;;;;;;29.02;22.75;;;;;;;-148.88;100.00;75899.09;5012868;28;20396;-76
2022/09/12 03:32:46;;;;;;;27.92;22.05;;;;;;;-148.88;100.00;75890.97;5012931;28;20029;-76
2022/09/12 03:35:13;;;;;;;29.02;22.10;;;;;;;-148.88;100.00;75893.00;5012692;28;20048;-76
2022/09/12 03:37:39;;;;;;;27.58;22.27;;;;;;;-148.88;100.00;75890.97;5013448;28;20032;-78
2022/09/12 03:40:07;;;;;;;31.58;24.00;;;;;;;-148.88;100.00;75890.97;5015546;28;20032;-78
2022/09/12 03:42:32;;;;;;;29.15;22.83;;;;;;;-148.88;100.00;75890.97;5015275;28;20029;-74
2022/09/12 03:44:57;;;;;;;30.48;23.20;;;;;;;-148.88;100.00;75888.94;5012817;28;20022;-74
2022/09/12 03:47:22;;;;;;;30.38;24.08;;;;;;;-148.88;100.00;75890.97;5011967;28;20385;-74
2022/09/12 03:49:48;;;;;;;32.90;23.55;;;;;;;-148.88;100.00;75884.88;5013995;28;20100;-75
2022/09/12 03:52:13;;;;;;;33.42;23.08;;;;;;;-148.88;100.00;75888.94;5014026;28;20018;-74
2022/09/12 03:54:38;;;;;;;34.95;25.17;;;;;;;-148.88;100.00;75890.97;5012808;28;20104;-74
2022/09/12 03:57:04;;;;;;;32.42;23.92;;;;;;;-148.88;100.00;75890.97;5012566;28;20561;-75
2022/09/12 03:59:29;;;;;;;32.17;23.88;;;;;;;-148.88;100.00;75890.97;5013681;28;20026;-75
2022/09/12 04:01:55;;;;;;;32.10;23.77;;;;;;;-148.88;100.00;75895.03;5013860;28;20025;-75
2022/09/12 04:04:20;;;;;;;32.97;24.02;;;;;;;-148.88;100.00;75897.06;5012469;28;20369;-75
2022/09/12 04:06:45;;;;;;;31.45;24.80;;;;;;;-148.88;100.00;75905.19;5013733;28;20025;-75
2022/09/12 04:09:10;;;;;;;33.15;24.27;;;;;;;-148.88;100.00;75895.03;5013635;28;20024;-75
2022/09/12 04:11:36;;;;;;;30.83;22.98;;;;;;;-148.88;100.00;75901.13;5012368;28;20416;-74
2022/09/12 04:14:01;;;;;;;31.20;22.88;;;;;;;-148.88;100.00;75903.16;5012432;28;20022;-74
2022/09/12 04:16:26;;;;;;;32.85;23.25;;;;;;;-148.88;100.00;75907.22;5013563;28;20072;-75
2022/09/12 04:18:53;;;;;;;31.40;23.55;;;;;;;-148.88;100.00;75911.28;5013582;28;20068;-74
2022/09/12 04:21:20;;;;;;;31.98;23.27;;;;;;;-148.88;100.00;75911.28;5013640;28;20057;-74
2022/09/12 04:23:46;;;;;;;34.97;24.52;;;;;;;-148.88;100.00;75915.34;5013617;28;20022;-74
2022/09/12 04:26:12;;;;;;;30.13;23.63;;;;;;;-148.88;100.00;75915.34;5013396;28;20436;-74
2022/09/12 04:28:38;;;;;;;33.50;24.30;;;;;;;-148.88;100.00;75919.41;5013355;28;20032;-75
2022/09/12 04:31:06;;;;;;;31.90;23.13;;;;;;;-148.88;100.00;75911.28;5012148;28;20030;-74
2022/09/12 04:33:35;;;;;;;31.25;23.48;;;;;;;-148.88;100.00;75913.31;5012042;28;20104;-74
2022/09/12 04:36:05;;;;;;;31.42;23.90;;;;;;;-148.88;100.00;75913.31;5013927;28;20045;-74
2022/09/12 04:38:31;;;;;;;32.60;23.13;;;;;;;-148.88;100.00;75917.38;5011953;28;20057;-75
2022/09/12 04:40:56;;;;;;;30.15;22.92;;;;;;;-148.88;100.00;75923.47;5013063;28;20064;-75
2022/09/12 04:43:22;;;;;;;30.63;22.48;;;;;;;-148.88;100.00;75925.50;5013151;28;20126;-75
2022/09/12 04:45:47;;;;;;;31.77;22.75;;;;;;;-148.88;100.00;75923.47;5011693;28;20032;-75
2022/09/12 04:48:12;;;;;;;29.88;22.27;;;;;;;-148.88;100.00;75917.38;5011907;28;20026;-75
2022/09/12 04:50:37;;;;;;;30.30;21.73;;;;;;;-148.88;100.00;75923.47;5013039;28;20022;-75
2022/09/12 04:53:03;;;;;;;26.73;21.10;;;;;;;-148.88;100.00;75923.47;5011717;28;20042;-75
2022/09/12 04:55:28;;;;;;;25.83;20.58;;;;;;;-148.88;100.00;75921.44;5012978;28;20021;-75
2022/09/12 04:57:53;;;;;;;26.67;21.30;;;;;;;-148.88;100.00;75933.63;5011758;28;20404;-74
2022/09/12 05:00:19;;;;;;;28.02;20.35;;;;;;;-148.88;100.00;75929.56;5012867;28;20567;-74
2022/09/12 05:02:45;;;;;;;25.55;19.48;;;;;;;-148.88;100.00;75931.59;5013211;28;20022;-75
2022/09/12 05:05:10;;;;;;;25.55;20.45;;;;;;;-148.88;100.00;75933.63;5012770;28;20374;-75
2022/09/12 05:07:36;;;;;;;27.70;20.27;;;;;;;-148.88;100.00;75935.66;5012884;28;20396;-74
2022/09/12 05:10:03;;;;;;;28.02;20.60;;;;;;;-148.88;100.00;75943.78;5012721;28;20115;-74
2022/09/12 05:12:30;;;;;;;28.73;20.67;;;;;;;-148.88;100.00;75941.75;5012781;28;20105;-75
2022/09/12 05:14:56;;;;;;;30.05;21.48;;;;;;;-148.88;100.00;75931.59;5012913;28;20037;-76
2022/09/12 05:17:21;;;;;;;29.15;20.63;;;;;;;-148.88;100.00;75931.59;5012893;28;20021;-76
2022/09/12 05:19:46;;;;;;;28.52;21.40;;;;;;;-148.88;100.00;75931.59;5012804;28;20092;-76
2022/09/12 05:22:12;;;;;;;24.42;20.27;;;;;;;-148.88;100.00;75919.41;5011466;28;20036;-76
2022/09/12 05:24:38;;;;;;;27.05;20.42;;;;;;;-148.88;100.00;75927.53;5012991;28;20072;-76
2022/09/12 05:27:03;;;;;;;29.30;20.92;;;;;;;-148.88;100.00;75927.53;5011524;28;20028;-76
2022/09/12 05:29:29;;;;;;;25.58;20.23;;;;;;;-148.88;100.00;75931.59;5012873;28;20023;-76
2022/09/12 05:31:55;;;;;;;23.92;18.40;;;;;;;-148.88;100.00;75931.59;5011491;28;20392;-76
2022/09/12 05:34:20;;;;;;;22.95;17.60;;;;;;;-148.88;100.00;75935.66;5012733;28;20026;-76
2022/09/12 05:36:46;;;;;;;22.80;18.30;;;;;;;-148.88;100.00;75933.63;5012812;28;20026;-75
2022/09/12 05:39:11;;;;;;;23.35;18.77;;;;;;;-148.88;100.00;75923.47;5011383;28;20369;-75
2022/09/12 05:41:37;;;;;;;24.00;18.65;;;;;;;-148.88;100.00;75919.41;5012679;28;20049;-75
2022/09/12 05:44:05;;;;;;;23.63;18.63;;;;;;;-148.88;100.00;75913.31;5013307;28;20037;-76
2022/09/12 05:46:35;;;;;;;22.17;18.17;;;;;;;-148.88;100.00;75913.31;5011288;28;20068;-77
2022/09/12 05:49:06;;;;;;;24.63;19.50;;;;;;;-148.88;100.00;75911.28;5012665;28;20079;-76
2022/09/12 05:51:34;;;;;;;26.73;18.70;;;;;;;-148.88;100.00;75907.22;5012507;28;20091;-76
2022/09/12 05:54:02;;;;;;;23.50;19.00;;;;;;;-148.88;100.00;75901.13;5011222;28;20034;-76
2022/09/12 05:56:30;;;;;;;22.73;18.83;;;;;;;-148.88;100.00;75901.13;5011039;28;20025;-76
2022/09/12 05:59:22;;;;;;;24.85;19.60;;;;;;;-148.88;100.00;75903.16;5011040;28;20030;-76
2022/09/12 06:01:48;;;;;;;26.25;20.15;;;;;;;-148.88;100.00;75899.09;5010453;28;20129;-76
2022/09/12 06:04:14;;;;;;;24.80;19.60;;;;;;;-148.88;100.00;75895.03;5011162;28;20120;-76
2022/09/12 06:06:44;;;;;;;25.83;19.45;;;;;;;-148.88;100.00;75899.09;5012389;28;20025;-76
2022/09/12 06:09:10;;;;;;;26.02;19.27;;;;;;;-148.88;100.00;75897.06;5012472;28;20315;-75
2022/09/12 06:11:39;;;;;;;24.42;19.10;;;;;;;-148.88;100.00;75899.09;5015893;28;20101;-76
2022/09/12 06:14:05;;;;;;;24.67;19.25;;;;;;;-148.88;100.00;75897.06;5016394;28;20029;-75
2022/09/12 06:16:33;;;;;;;23.75;18.60;;;;;;;-148.88;100.00;75886.91;5015816;28;20061;-75
2022/09/12 06:19:01;;;;;;;21.17;17.05;;;;;;;-148.88;100.00;75886.91;5014473;28;20029;-75
2022/09/12 06:21:27;;;;;;;21.58;17.42;;;;;;;-148.88;100.00;75893.00;5015700;28;20021;-75
2022/09/12 06:23:53;;;;;;;19.60;15.93;;;;;;;-148.88;100.00;75893.00;5014444;28;20431;-76
2022/09/12 06:26:24;;;;;;;23.77;17.88;;;;;;;-148.88;100.00;75886.91;5015563;28;20025;-76
2022/09/12 06:28:49;;;;;;;20.65;17.48;;;;;;;-148.88;100.00;75880.81;5014243;28;20069;-76
2022/09/12 06:31:18;;;;;;;24.02;17.77;;;;;;;-148.88;100.00;75882.84;5015513;28;20436;-76
2022/09/12 06:33:45;;;;;;;20.65;16.83;;;;;;;-148.88;100.00;75884.88;5015407;28;20045;-76
2022/09/12 06:36:14;;;;;;;23.38;18.20;;;;;;;-148.88;100.00;75874.72;5014078;28;20124;-75
2022/09/12 06:38:40;;;;;;;21.38;16.67;;;;;;;-148.88;100.00;75870.66;5015307;28;20113;-76
2022/09/12 06:41:07;;;;;;;21.77;17.40;;;;;;;-148.88;100.00;75862.53;5015310;28;20116;-76
2022/09/12 06:43:34;;;;;;;20.55;16.77;;;;;;;-148.88;100.00;75858.47;5015254;28;20113;-76
2022/09/12 06:46:00;;;;;;;23.98;19.15;;;;;;;-148.88;100.00;75846.28;5015272;28;20076;-76
2022/09/12 06:48:26;;;;;;;27.15;19.95;;;;;;;-148.88;100.00;75834.09;5015236;28;20481;-76
2022/09/12 06:51:06;;;;;;;29.15;21.00;;;;;;;-148.88;100.00;75825.97;5014179;28;20104;-75
2022/09/12 06:53:33;;;;;;;26.75;20.83;;;;;;;-148.88;100.00;75807.69;5015414;28;20455;-76
2022/09/12 06:56:00;;;;;;;32.55;23.55;;;;;;;-148.88;100.00;75801.59;5013846;28;20042;-75
2022/09/12 06:58:27;;;;;;;28.60;21.48;;;;;;;-148.88;100.00;75793.47;5013674;28;20034;-76
2022/09/12 07:01:01;;;;;;;29.15;22.77;;;;;;;-148.88;100.00;75781.28;5013548;28;20041;-76
2022/09/12 07:03:26;;;;;;;30.58;22.83;;;;;;;-148.88;100.00;75773.16;5013745;28;20029;-76
2022/09/12 07:05:52;;;;;;;32.17;23.98;;;;;;;-148.88;100.00;75763.00;5014782;28;20030;-76
2022/09/12 07:08:17;;;;;;;30.70;22.35;;;;;;;-148.88;100.00;75740.66;5014837;28;20059;-76
2022/09/12 07:10:42;;;;;;;33.72;24.48;;;;;;;-148.88;100.00;75734.56;5014593;28;20029;-76
2022/09/12 07:13:07;;;;;;;33.30;24.23;;;;;;;-148.88;100.00;75720.34;5013497;28;20040;-76
2022/09/12 07:15:34;;;;;;;30.55;22.83;;;;;;;-148.88;100.00;75706.13;5014656;28;20099;-76
2022/09/12 07:17:59;;;;;;;30.92;22.70;;;;;;;-148.88;100.00;75689.88;5014571;28;20065;-76
2022/09/12 07:20:24;;;;;;;29.50;22.25;;;;;;;-148.88;100.00;75671.59;5014358;28;20022;-76
2022/09/12 07:22:49;;;;;;;26.30;20.50;;;;;;;-148.88;100.00;75653.31;5012363;28;20029;-76
2022/09/12 07:25:15;;;;;;;29.30;21.90;;;;;;;-148.88;100.00;75647.22;5013145;28;20025;-76
2022/09/12 07:27:40;;;;;;;26.55;20.00;;;;;;;-148.88;100.00;75641.13;5014986;28;20030;-75
2022/09/12 07:30:06;;;;;;;26.33;21.15;;;;;;;-148.88;100.00;75633.00;5014603;28;20018;-76
2022/09/12 07:32:32;;;;;;;24.50;20.15;;;;;;;-148.88;100.00;75622.84;5014482;28;20026;-76
2022/09/12 07:34:57;;;;;;;25.35;20.27;;;;;;;-148.88;100.00;75598.47;5014244;28;20071;-76
2022/09/12 07:37:22;;;;;;;24.15;19.13;;;;;;;-148.88;100.00;75594.44;5013032;28;20033;-75
2022/09/12 07:39:48;;;;;;;25.88;19.88;;;;;;;-148.88;100.00;75590.34;5012940;28;20033;-76
2022/09/12 07:42:14;;;;;;;25.38;19.27;;;;;;;-148.88;100.00;75594.44;5014364;28;20112;-76
2022/09/12 07:44:39;;;;;;;26.63;19.65;;;;;;;-148.88;100.00;75580.22;5014086;28;20030;-76
2022/09/12 07:47:05;;;;;;;22.35;17.90;;;;;;;-148.88;100.00;75559.91;5014103;28;20233;-76
2022/09/12 07:49:30;;;;;;;23.08;17.60;;;;;;;-148.88;100.00;75541.63;5014006;28;20034;-77
2022/09/12 07:51:55;;;;;;;23.25;17.98;;;;;;;-148.88;100.00;75529.44;5014253;28;20040;-76
2022/09/12 07:54:21;;;;;;;20.80;17.50;;;;;;;-148.88;100.00;75521.31;5012704;28;20029;-76
2022/09/12 07:56:46;;;;;;;22.73;18.40;;;;;;;-148.88;100.00;75511.16;5013800;28;20025;-76
2022/09/12 07:59:12;;;;;;;23.38;17.73;;;;;;;-148.88;100.00;75503.03;5013897;28;20042;-76
2022/09/12 08:01:38;;;;;;;20.45;16.75;;;;;;;-148.88;100.00;75480.69;5013852;28;20026;-76
2022/09/12 08:04:04;;;;;;;19.58;16.27;;;;;;;-148.88;100.00;75464.44;5013865;28;20053;-76
2022/09/12 08:06:30;;;;;;;22.88;17.02;;;;;;;-148.88;100.00;75440.06;5012748;28;20070;-76
2022/09/12 08:08:57;;;;;;;23.50;17.77;;;;;;;-148.88;100.00;75427.88;5013843;28;20026;-76
2022/09/12 08:11:25;;;;;;;20.48;15.60;;;;;;;-148.88;100.00;75411.63;5012407;28;20026;-76
2022/09/12 08:13:54;;;;;;;20.85;15.65;;;;;;;-148.88;100.00;75411.63;5013707;28;20176;-76
2022/09/12 08:16:22;;;;;;;18.15;14.43;;;;;;;-148.88;99.56;75389.28;5012361;28;20025;-76
2022/09/12 08:18:48;;;;;;;16.83;14.52;;;;;;;-148.88;99.59;75383.19;5013507;28;20125;-76
2022/09/12 08:21:19;;;;;;;17.95;15.32;;;;;;;-148.88;100.00;75358.81;5013446;28;20018;-76
2022/09/12 08:23:45;;;;;;;19.40;14.85;;;;;;;-148.88;99.16;75362.88;5012255;28;20022;-76
2022/09/12 08:26:11;;;;;;;16.75;14.10;;;;;;;-148.88;99.04;75348.66;5013420;28;20018;-76
2022/09/12 08:28:39;;;;;;;17.73;14.27;;;;;;;-148.88;98.62;75334.44;5013364;28;20032;-76
2022/09/12 08:31:09;;;;;;;17.50;14.48;;;;;;;-148.88;99.67;75314.13;5013365;28;20072;-76
2022/09/12 08:33:34;;;;;;;18.55;13.25;;;;;;;-148.88;97.96;75299.91;5012942;28;20488;-76
2022/09/12 08:36:06;;;;;;;15.68;13.23;;;;;;;-148.88;96.20;75293.81;5013783;28;20113;-76
2022/09/12 08:38:33;;;;;;;17.77;13.40;;;;;;;-148.88;95.06;75287.72;5013476;28;20115;-76
2022/09/12 08:41:05;;;;;;;15.52;12.27;;;;;;;-148.88;95.03;75261.34;5020451;28;20077;-76
2022/09/12 08:43:56;;;;;;;13.15;11.75;;;;;;;-148.88;94.43;75253.22;5033409;28;20053;-76
2022/09/12 08:46:30;;;;;;;16.33;12.63;;;;;;;-148.88;95.66;75232.91;5012198;28;20113;-76
2022/09/12 08:48:59;;;;;;;16.67;12.88;;;;;;;-148.88;94.26;75232.91;5013214;28;20034;-76
2022/09/12 08:51:25;;;;;;;15.85;12.18;;;;;;;-148.88;95.07;75216.66;5013153;28;20117;-76
2022/09/12 08:53:55;;;;;;;16.08;12.50;;;;;;;-148.88;93.51;75212.59;5011785;28;20076;-76
2022/09/12 08:56:20;;;;;;;13.82;11.68;;;;;;;-148.88;92.61;75208.53;5013411;28;20140;-76
2022/09/12 08:58:46;;;;;;;15.82;10.68;;;;;;;-148.88;90.46;75202.44;5013023;28;20026;-76
2022/09/12 09:01:29;;;;;;;13.65;11.30;;;;;;;-148.88;90.73;75186.19;5013020;28;20026;-76
2022/09/12 09:04:11;;;;;;;13.23;10.68;;;;;;;-148.88;90.93;75171.97;5013090;28;20026;-76
2022/09/12 09:07:14;;;;;;;11.18;9.43;;;;;;;-148.88;91.02;75151.66;5012939;28;20030;-76
2022/09/12 09:09:55;;;;;;;10.70;8.55;;;;;;;-148.88;86.74;75127.28;5013055;28;20040;-76
2022/09/12 09:12:45;;;;;;;9.27;7.25;;;;;;;-148.88;85.96;75115.09;5012896;28;20565;-76
2022/09/12 09:15:35;;;;;;;9.52;6.57;;;;;;;-148.88;83.76;75090.72;5012822;28;20026;-76
2022/09/12 09:18:07;;;;;;;9.32;6.93;;;;;;;-148.88;82.15;75062.31;5013284;28;20420;-76
2022/09/12 09:20:40;;;;;;;9.80;6.73;;;;;;;-148.88;80.99;75044.03;5013090;28;20468;-75
2022/09/12 09:23:26;;;;;;;7.93;6.65;;;;;;;-148.88;80.35;75027.78;5011683;28;20022;-76
2022/09/12 09:26:01;;;;;;;10.23;7.20;;;;;;;-148.88;79.66;75027.78;5012732;28;20068;-76
2022/09/12 09:28:41;;;;;;;9.07;6.25;;;;;;;-148.88;79.04;75009.50;5012815;28;20034;-76
2022/09/12 09:31:18;;;;;;;8.77;6.28;;;;;;;-148.88;78.13;75001.38;5011489;28;20022;-76
2022/09/12 09:33:46;;;;;;;7.55;5.80;;;;;;;-148.88;76.62;74999.34;5012797;28;20029;-76
2022/09/12 09:36:40;;;;;;;7.80;5.68;;;;;;;-148.88;77.26;74981.06;5012585;28;20148;-76
2022/09/12 09:39:33;;;;;;;7.88;6.40;;;;;;;-148.88;74.91;74960.75;5004425;28;20038;-77
2022/09/12 09:42:37;;;;;;;7.18;5.43;;;;;;;-148.88;75.19;74956.69;5012570;28;20080;-76
2022/09/12 09:45:13;;;;;;;7.40;5.70;;;;;;;-148.88;74.65;74946.53;5012703;28;20041;-76
2022/09/12 09:47:38;;;;;;;7.82;5.57;;;;;;;-148.88;74.92;74936.41;5016314;28;20025;-76
2022/09/12 09:50:05;;;;;;;6.18;4.78;;;;;;;-148.88;74.56;74924.22;5016488;28;20033;-76
2022/09/12 09:52:31;;;;;;;7.07;5.35;;;;;;;-148.88;73.67;74946.53;5015033;28;20073;-76
2022/09/12 09:54:59;;;;;;;7.32;5.20;;;;;;;-148.88;72.93;74938.44;5016812;28;20050;-77
2022/09/12 09:57:34;;;;;;;9.38;6.15;;;;;;;-148.88;73.85;74932.34;5015532;28;20026;-76
2022/09/12 10:00:32;;;;;;;8.95;5.60;;;;;;;-148.88;73.20;74922.19;5016182;28;20121;-76
2022/09/12 10:03:09;;;;;;;9.27;6.07;;;;;;;-148.88;72.52;74918.13;5016166;28;20100;-76
2022/09/12 10:06:00;;;;;;;7.53;5.70;;;;;;;-148.88;71.53;74914.06;5015927;28;20030;-76
2022/09/12 10:08:27;;;;;;;8.10;4.97;;;;;;;-148.88;73.23;74895.78;5015936;28;20488;-76
2022/09/12 10:11:04;;;;;;;10.30;6.20;;;;;;;-148.88;71.78;74893.75;5014595;28;20033;-76
2022/09/12 10:13:34;;;;;;;8.15;5.78;;;;;;;-148.88;71.70;74887.66;5015906;28;20021;-76
2022/09/12 10:16:22;;;;;;;7.85;6.22;;;;;;;-148.88;69.56;74875.47;5015724;28;20104;-76
2022/09/12 10:18:52;;;;;;;7.13;5.60;;;;;;;-148.88;70.62;74871.41;5016038;28;20100;-76
2022/09/12 10:21:23;;;;;;;8.40;5.18;;;;;;;-148.88;71.69;74857.19;5015576;28;20128;-76
2022/09/12 10:24:02;;;;;;;15.95;14.35;;;;;;;-148.88;70.81;74838.91;5015714;28;20026;-76
2022/09/12 10:26:33;;;;;;;9.15;5.30;;;;;;;-148.88;71.52;74834.84;5015503;28;20546;-76
2022/09/12 10:29:05;;;;;;;9.35;5.68;;;;;;;-148.88;70.50;74830.78;5015823;28;20392;-76
2022/09/12 10:31:50;;;;;;;7.97;4.90;;;;;;;-148.88;71.30;74822.66;5015631;28;20105;-76
2022/09/12 10:34:26;;;;;;;7.47;5.00;;;;;;;-148.88;69.29;74810.50;5015657;28;20080;-76
2022/09/12 10:36:59;;;;;;;10.10;5.97;;;;;;;-148.88;68.93;74802.38;5014250;28;20400;-75
2022/09/12 10:39:25;;;;;;;7.55;5.82;;;;;;;-148.88;69.96;74773.94;5015630;28;20026;-76
2022/09/12 10:41:50;;;;;;;7.68;5.18;;;;;;;-148.88;69.19;74757.69;5015317;28;20033;-76
2022/09/12 10:44:29;;;;;;;8.32;5.57;;;;;;;-148.88;67.94;74759.72;5015498;28;20030;-76
2022/09/12 10:46:56;;;;;;;8.18;5.72;;;;;;;-148.88;67.44;74741.44;5015154;28;20440;-76
2022/09/12 10:49:25;;;;;;;6.80;5.45;;;;;;;-148.88;67.49;74733.31;5013989;28;20017;-76
2022/09/12 10:51:53;;;;;;;8.98;6.47;;;;;;;-148.88;64.69;74757.69;5013952;28;20048;-76
2022/09/12 10:54:22;;;;;;;10.52;5.25;;;;;;;-148.88;67.21;74690.69;5015155;28;20104;-77
2022/09/12 10:56:56;;;;;;;7.72;5.38;;;;;;;-148.88;62.85;74623.66;5014738;28;20026;-76
2022/09/12 10:59:36;;;;;;;8.40;5.80;;;;;;;-148.88;63.65;74595.25;5014968;28;20026;-76
2022/09/12 11:02:13;;;;;;;7.28;5.47;;;;;;;-148.88;61.59;74587.13;5015042;28;20026;-76
2022/09/12 11:04:44;;;;;;;8.20;5.38;;;;;;;-148.88;61.84;74566.81;5015181;28;20153;-77
2022/09/12 11:07:28;;;;;;;7.28;5.13;;;;;;;-148.88;60.41;74568.84;5014919;28;20025;-76
2022/09/12 11:10:05;;;;;;;6.03;3.88;;;;;;;-148.88;63.22;74493.72;5013563;28;20487;-77
2022/09/12 11:12:47;;;;;;;7.18;4.80;;;;;;;-148.88;61.08;74440.91;5015276;28;20033;-76
2022/09/12 11:15:46;;;;;;;9.30;5.57;;;;;;;-148.88;57.60;74485.59;5014812;28;20109;-76
2022/09/12 11:18:18;;;;;;;8.63;5.72;;;;;;;-148.88;60.01;74469.34;5013454;28;20491;-76
2022/09/12 11:21:08;;;;;;;10.55;5.78;;;;;;;-148.88;58.77;74420.59;5013599;28;20036;-76
2022/09/12 11:23:53;;;;;;;9.50;5.35;;;;;;;-148.88;55.31;74398.28;5015229;28;20029;-76
2022/09/12 11:26:40;;;;;;;9.80;5.15;;;;;;;-148.88;54.21;74420.59;5014413;28;20041;-76
2022/09/12 11:29:25;;;;;;;9.77;5.50;;;;;;;-148.88;53.91;74453.09;5014475;28;20029;-76
2022/09/12 11:32:15;;;;;;;10.80;5.38;;;;;;;-148.88;52.50;74424.66;5014331;28;20025;-77
2022/09/12 11:35:11;;;;;;;7.60;5.47;;;;;;;-148.88;52.64;74392.19;5014288;28;20018;-76